Ted Stevens Anchorage International Airport
PANC : now visible

Airfield :











YOU CAN JOIN US ON...

 
LOGIN :

Register | Disclaimer

   EN    FR    IT 

 









Legend :    VFR   Marginal VFR   IFR   Intensive IFR   Very Intensive IFR
Visi :
Ceiling :
>= 8 km
>= 3000ft
5 to 8 km
1000 to 3000 ft
1500m to 5 km
500 to 1000 ft
800 to 1500m
200 to 500 ft
< 800m
< 200 ft
Symbols :   Thunderstorms  Fog  Heavy snow  Heavy precipitations  Wind > 20 kt







- Airport Elevation : 152 ft
- IATA code : ANC


PANC - Ted Stevens Anchorage International

CURRENT METAR :
  • 201253Z 09005KT 10SM FEW007 BKN250 M10/M12 A3016 RMK AO2 SLP218 I1000 T11001122

EXPIRED METARs :
  • 201153Z 11004KT 10SM FEW007 SCT250 M11/M13 A3018 RMK AO2 SLP223 4/020 70001 I1000 I6001 T11111128 11050 21122 50002
  • 201100Z 04005KT 10SM FEW007 M10/M12 A3019 RMK AO2 T11001122
  • 201053Z 06003KT 10SM FEW010 SCT250 M11/M12 A3019 RMK AO2 SLP228 I1000 T11061122

TAF PANC
Valid from the 20 at 12:00 until the 21 at 18:00 UTC


201140Z 2012/2118 36005KT P6SM VCFG SCT007 OVC250
FM202200 01005KT 4SM -SN BR SCT020 BKN035
FM210100 05003KT 2SM -SN BR SCT006 OVC012
FM210400 VRB05KT 1SM -SN BR SCT005 OVC010
FM210800 36005KT 1/2SM SN FZFG OVC005
FM211200 01005KT 2SM -SN BR SCT005 OVC015
FM211700 25007KT P6SM VCSH SCT015 BKN035
PAZA FIR / North America



MET'MAP, your aeronautical weather chart ! - Copyright ORBIFLY December 2007 - Disclaimer

ORBIFLY MET'MAP TEAM :

Programming & Development : Alexandra Zaïnal
Concept & Development : Baudouin d'Aumeries
Co-Development & Prog : Marc-Olivier Méhu
Technical & hardware support : Manuel Goepfert

Contact : metmap@orbifly.com




SOURCES & CREDITS :

   NOAA       Earth
Advisory